Time;durP1;ratioP1;P1;durP2;ratioP2;P2;SDS_P1;SDS_P2;PMS_P1;PMS_P2;Temp;Humidity;BMP_temperature;BMP_pressure;BME280_temperature;BME280_humidity;BME280_pressure;Samples;Min_cycle;Max_cycle;Signal;HPM_P1;HPM_P2
2022/09/09 00:02:19;;;;;;;2.47;2.20;;;;;;;12.77;100.00;100338.75;5014937;28;20199;-74
2022/09/09 00:05:01;;;;;;;2.47;1.93;;;;;;;12.78;100.00;100348.31;5010547;28;20218;-71
2022/09/09 00:07:39;;;;;;;2.67;2.40;;;;;;;12.80;100.00;100354.34;5015657;28;20386;-73
2022/09/09 00:10:17;;;;;;;2.37;2.17;;;;;;;12.75;100.00;100348.44;5014951;28;20210;-72
2022/09/09 00:12:56;;;;;;;2.53;2.33;;;;;;;12.73;100.00;100348.50;5011466;28;20230;-74
2022/09/09 00:15:26;;;;;;;2.40;2.00;;;;;;;12.68;100.00;100353.94;5015745;28;20226;-74
2022/09/09 00:17:59;;;;;;;2.50;2.30;;;;;;;12.67;100.00;100346.13;5018321;28;20653;-74
2022/09/09 00:20:33;;;;;;;2.03;1.90;;;;;;;12.64;100.00;100346.25;5012750;28;20543;-74
2022/09/09 00:23:06;;;;;;;2.23;2.00;;;;;;;12.66;100.00;100341.81;5012949;28;20214;-74
2022/09/09 00:25:41;;;;;;;2.80;2.50;;;;;;;12.59;100.00;100332.50;5014107;28;20201;-74
2022/09/09 00:28:18;;;;;;;2.50;2.30;;;;;;;12.56;100.00;100336.09;5013347;28;20238;-74
2022/09/09 00:30:49;;;;;;;2.37;2.17;;;;;;;12.55;100.00;100339.59;5011909;28;20228;-73
2022/09/09 00:33:21;;;;;;;4.90;2.20;;;;;;;12.58;100.00;100336.88;5011019;28;20210;-74
2022/09/09 00:35:52;;;;;;;2.83;2.40;;;;;;;12.55;100.00;100334.38;5020576;28;20224;-74
2022/09/09 00:38:24;;;;;;;5.30;2.70;;;;;;;12.55;100.00;100338.78;5029970;28;20225;-72
2022/09/09 00:40:54;;;;;;;2.40;2.20;;;;;;;12.49;100.00;100334.63;5012563;28;20224;-73
2022/09/09 00:43:32;;;;;;;3.70;2.27;;;;;;;12.50;100.00;100336.31;5027234;28;20214;-73
2022/09/09 00:46:14;;;;;;;3.00;2.53;;;;;;;12.50;100.00;100328.47;5018214;28;20201;-74
2022/09/09 00:48:52;;;;;;;1.97;1.87;;;;;;;12.46;100.00;100335.59;5015617;28;20231;-75
2022/09/09 00:51:31;;;;;;;2.77;2.57;;;;;;;12.44;100.00;100332.19;5031248;28;20238;-74
2022/09/09 00:54:29;;;;;;;3.43;2.77;;;;;;;12.42;100.00;100341.00;5020847;28;20192;-71
2022/09/09 00:57:13;;;;;;;2.63;2.40;;;;;;;12.38;100.00;100334.19;5018159;28;20194;-74
2022/09/09 00:59:48;;;;;;;2.73;2.53;;;;;;;12.39;100.00;100343.75;5021849;28;20199;-73
2022/09/09 01:02:27;;;;;;;2.63;2.43;;;;;;;12.38;100.00;100336.78;5025943;28;20218;-72
2022/09/09 01:04:55;;;;;;;3.77;2.47;;;;;;;12.41;100.00;100347.13;5020198;28;20203;-73
2022/09/09 01:07:24;;;;;;;2.33;2.13;;;;;;;12.38;100.00;100348.09;5021184;28;20219;-73
2022/09/09 01:09:57;;;;;;;2.30;2.10;;;;;;;12.38;100.00;100349.84;5017614;28;20252;-72
2022/09/09 01:12:39;;;;;;;2.90;2.40;;;;;;;12.36;100.00;100347.31;5008500;28;20299;-73
2022/09/09 01:15:12;;;;;;;2.73;2.50;;;;;;;12.36;100.00;100352.53;5020988;28;20198;-73
2022/09/09 01:18:02;;;;;;;2.90;2.47;;;;;;;12.36;100.00;100363.00;5032994;28;20691;-73
2022/09/09 01:20:39;;;;;;;2.60;2.30;;;;;;;12.38;100.00;100362.94;5033452;28;20197;-71
2022/09/09 01:23:27;;;;;;;2.50;2.30;;;;;;;12.34;100.00;100362.19;5021651;28;20208;-72
2022/09/09 01:26:23;;;;;;;3.40;2.53;;;;;;;12.28;100.00;100359.84;5022070;28;20200;-73
2022/09/09 01:28:53;;;;;;;2.20;2.00;;;;;;;12.25;100.00;100371.25;5039348;28;20300;-72
2022/09/09 01:31:32;;;;;;;2.47;2.27;;;;;;;12.23;100.00;100372.22;5019798;28;20353;-74
2022/09/09 01:33:59;;;;;;;3.87;2.50;;;;;;;12.22;100.00;100371.34;5023395;28;20226;-73
2022/09/09 01:36:34;;;;;;;2.90;2.60;;;;;;;12.19;100.00;100365.38;5022320;28;20258;-74
2022/09/09 01:39:01;;;;;;;3.10;2.80;;;;;;;12.24;100.00;100368.69;5014594;28;20227;-72
2022/09/09 01:41:30;;;;;;;2.93;2.73;;;;;;;12.26;100.00;100361.63;5018934;28;20195;-73
2022/09/09 01:44:03;;;;;;;4.53;2.27;;;;;;;12.23;100.00;100365.22;5014815;28;20216;-72
2022/09/09 01:46:33;;;;;;;2.73;2.47;;;;;;;12.23;100.00;100361.75;5018319;28;20188;-73
2022/09/09 01:49:03;;;;;;;2.37;2.17;;;;;;;12.22;100.00;100352.19;5020144;28;20219;-73
2022/09/09 01:51:31;;;;;;;2.40;2.20;;;;;;;12.21;100.00;100356.59;5026293;28;20200;-74
2022/09/09 01:54:03;;;;;;;2.10;1.90;;;;;;;12.21;100.00;100361.81;5023054;28;20199;-74
2022/09/09 01:56:44;;;;;;;3.00;1.77;;;;;;;12.22;100.00;100352.19;5032313;28;20205;-73
2022/09/09 01:59:34;;;;;;;2.20;2.00;;;;;;;12.24;100.00;100358.22;5034910;28;20212;-74
2022/09/09 02:02:11;;;;;;;2.50;2.30;;;;;;;12.20;100.00;100351.41;5036295;28;20227;-74
2022/09/09 02:04:45;;;;;;;1.80;1.70;;;;;;;12.21;100.00;100359.19;5031443;28;20250;-73
2022/09/09 02:07:39;;;;;;;2.97;2.37;;;;;;;12.17;100.00;100354.13;5022218;28;20188;-73
2022/09/09 02:10:18;;;;;;;2.67;2.30;;;;;;;12.13;100.00;100359.47;5023289;28;20845;-72
2022/09/09 02:13:05;;;;;;;2.90;2.50;;;;;;;12.07;100.00;100366.69;5017790;28;20225;-73
2022/09/09 02:15:37;;;;;;;2.70;2.50;;;;;;;12.06;100.00;100364.97;5018612;28;20196;-73
2022/09/09 02:18:07;;;;;;;3.13;2.47;;;;;;;12.05;100.00;100369.38;5021220;28;20224;-72
2022/09/09 02:20:38;;;;;;;2.20;2.00;;;;;;;12.07;100.00;100361.47;5033073;28;20210;-73
2022/09/09 02:23:08;;;;;;;2.40;2.20;;;;;;;12.04;100.00;100370.25;5023822;28;20209;-71
2022/09/09 02:25:38;;;;;;;2.70;2.03;;;;;;;11.98;100.00;100367.88;5019945;28;20686;-73
2022/09/09 02:28:21;;;;;;;2.10;1.90;;;;;;;12.01;100.00;100372.13;5031228;28;20224;-73
2022/09/09 02:30:54;;;;;;;3.50;2.43;;;;;;;12.02;100.00;100366.84;5023526;28;20223;-73
2022/09/09 02:33:28;;;;;;;2.63;2.10;;;;;;;12.05;100.00;100363.28;5038371;28;20208;-71
2022/09/09 02:36:01;;;;;;;2.10;1.90;;;;;;;12.06;100.00;100364.97;5023590;28;20188;-71
2022/09/09 02:38:36;;;;;;;2.10;1.90;;;;;;;12.01;100.00;100365.13;5026481;28;20212;-73
2022/09/09 02:41:10;;;;;;;2.27;2.03;;;;;;;11.98;100.00;100367.00;5037204;28;20187;-74
2022/09/09 02:43:38;;;;;;;2.10;1.90;;;;;;;11.96;100.00;100359.25;5028178;28;20197;-73
2022/09/09 02:46:24;;;;;;;2.63;2.27;;;;;;;11.90;100.00;100364.66;5022994;28;20196;-73
2022/09/09 02:48:59;;;;;;;3.53;2.27;;;;;;;11.90;100.00;100362.91;5023986;28;20230;-73
2022/09/09 02:51:36;;;;;;;3.77;2.20;;;;;;;11.91;100.00;100361.19;5024111;28;20835;-74
2022/09/09 02:54:13;;;;;;;3.13;2.47;;;;;;;11.90;100.00;100370.75;5040502;28;20218;-73
2022/09/09 02:56:46;;;;;;;3.93;2.60;;;;;;;11.85;100.00;100362.19;5022695;28;20227;-73
2022/09/09 02:59:14;;;;;;;2.40;2.00;;;;;;;11.84;100.00;100370.13;5034289;28;20319;-74
2022/09/09 03:01:42;;;;;;;2.50;2.30;;;;;;;11.84;100.00;100367.50;5021633;28;20223;-74
2022/09/09 03:04:10;;;;;;;2.40;2.20;;;;;;;11.83;100.00;100374.47;5011240;28;20202;-73
2022/09/09 03:06:37;;;;;;;2.83;2.23;;;;;;;11.79;100.00;100374.66;5034860;28;20558;-73
2022/09/09 03:09:15;;;;;;;2.60;1.87;;;;;;;11.77;100.00;100372.06;5033083;28;20231;-71
2022/09/09 03:11:42;;;;;;;2.10;1.90;;;;;;;11.75;100.00;100379.13;5015983;28;20197;-73
2022/09/09 03:14:11;;;;;;;2.13;1.93;;;;;;;11.76;100.00;100378.19;5016655;28;20191;-74
2022/09/09 03:16:40;;;;;;;2.23;2.03;;;;;;;11.71;100.00;100383.59;5023296;28;20203;-73
2022/09/09 03:19:07;;;;;;;3.07;2.03;;;;;;;11.63;100.00;100380.38;5025591;28;20256;-73
2022/09/09 03:21:35;;;;;;;2.47;2.10;;;;;;;11.61;100.00;100378.72;5034179;28;20197;-72
2022/09/09 03:24:03;;;;;;;2.10;1.90;;;;;;;11.58;100.00;100377.09;5030834;28;20194;-73
2022/09/09 03:26:31;;;;;;;2.40;2.13;;;;;;;11.64;100.00;100381.22;5045030;28;20220;-70
2022/09/09 03:29:00;;;;;;;3.63;2.50;;;;;;;11.58;100.00;100381.47;5037195;28;20216;-73
2022/09/09 03:31:29;;;;;;;3.87;2.23;;;;;;;11.62;100.00;100381.28;5020261;28;20200;-72
2022/09/09 03:33:59;;;;;;;2.20;2.00;;;;;;;11.56;100.00;100390.19;5011957;28;20265;-72
2022/09/09 03:36:29;;;;;;;2.30;2.03;;;;;;;11.63;100.00;100382.16;5015627;28;20275;-73
2022/09/09 03:38:56;;;;;;;2.30;2.10;;;;;;;11.54;100.00;100384.16;5016433;28;20280;-73
2022/09/09 03:41:26;;;;;;;2.30;2.10;;;;;;;11.56;100.00;100374.53;5017608;28;20227;-73
2022/09/09 03:43:54;;;;;;;2.17;1.97;;;;;;;11.53;100.00;100377.22;5026470;28;20217;-73
2022/09/09 03:46:25;;;;;;;2.53;1.93;;;;;;;11.56;100.00;100374.53;5020064;28;20257;-74
2022/09/09 03:48:54;;;;;;;2.20;1.70;;;;;;;11.54;100.00;100372.88;5018750;28;20217;-73
2022/09/09 03:51:24;;;;;;;1.80;1.70;;;;;;;11.51;100.00;100373.81;5048402;28;20229;-73
2022/09/09 03:53:52;;;;;;;1.83;1.67;;;;;;;11.52;100.00;100375.53;5006439;28;20233;-73
2022/09/09 03:56:21;;;;;;;2.37;2.13;;;;;;;11.52;100.00;100372.06;5018279;28;20205;-73
2022/09/09 03:58:48;;;;;;;1.83;1.70;;;;;;;11.52;100.00;100375.53;5018223;28;20224;-72
2022/09/09 04:01:17;;;;;;;2.00;1.80;;;;;;;11.51;100.00;100376.44;5019121;28;20226;-74
2022/09/09 04:03:45;;;;;;;3.43;2.23;;;;;;;11.49;100.00;100385.22;5019438;28;20733;-72
2022/09/09 04:06:14;;;;;;;3.07;2.03;;;;;;;11.47;100.00;100382.66;5019327;28;20232;-74
2022/09/09 04:08:48;;;;;;;3.27;2.33;;;;;;;11.45;100.00;100381.88;5018359;28;20723;-73
2022/09/09 04:11:16;;;;;;;2.27;2.07;;;;;;;11.46;100.00;100385.31;5017816;28;20195;-73
2022/09/09 04:13:45;;;;;;;2.03;1.83;;;;;;;11.41;100.00;100389.84;5018159;28;20201;-72
2022/09/09 04:16:14;;;;;;;2.07;1.87;;;;;;;11.40;100.00;100385.50;5028769;28;20280;-73
2022/09/09 04:18:42;;;;;;;2.97;2.20;;;;;;;11.36;100.00;100390.88;5017660;28;20229;-73
2022/09/09 04:21:12;;;;;;;2.40;2.20;;;;;;;11.34;100.00;100397.91;5034809;28;20194;-72
2022/09/09 04:23:40;;;;;;;2.27;2.00;;;;;;;11.31;100.00;100395.38;5015938;28;20212;-72
2022/09/09 04:26:09;;;;;;;2.57;2.13;;;;;;;11.31;100.00;100403.22;5012650;28;20212;-73
2022/09/09 04:28:37;;;;;;;3.63;2.40;;;;;;;11.34;100.00;100404.84;5017084;28;20224;-74
2022/09/09 04:31:11;;;;;;;5.63;2.27;;;;;;;11.24;100.00;100399.09;5015292;28;20236;-72
2022/09/09 04:33:40;;;;;;;2.73;2.20;;;;;;;11.31;100.00;100399.72;5012084;28;20229;-73
2022/09/09 04:36:09;;;;;;;3.23;2.10;;;;;;;11.29;100.00;100406.75;5016821;28;20260;-73
2022/09/09 04:38:36;;;;;;;2.37;2.10;;;;;;;11.36;100.00;100409.13;5017770;28;20222;-73
2022/09/09 04:41:05;;;;;;;2.53;2.30;;;;;;;11.40;100.00;100409.00;5018552;28;20231;-71
2022/09/09 04:43:37;;;;;;;2.10;1.90;;;;;;;11.36;100.00;100413.47;5005560;28;20181;-73
2022/09/09 04:46:06;;;;;;;2.03;1.83;;;;;;;11.36;100.00;100413.47;5019091;28;20189;-73
2022/09/09 04:48:33;;;;;;;2.40;2.20;;;;;;;11.36;100.00;100416.97;5022518;28;20690;-72
2022/09/09 04:51:04;;;;;;;2.80;2.50;;;;;;;11.38;100.00;100416.91;5013577;28;20655;-73
2022/09/09 04:53:33;;;;;;;2.83;2.13;;;;;;;11.39;100.00;100416.00;5026265;28;20204;-72
2022/09/09 04:56:05;;;;;;;2.57;2.37;;;;;;;11.31;100.00;100420.59;5013807;28;20225;-72
2022/09/09 04:58:39;;;;;;;2.17;1.97;;;;;;;11.27;100.00;100414.63;5013026;28;20315;-73
2022/09/09 05:01:08;;;;;;;2.67;2.20;;;;;;;11.24;100.00;100419.09;5024695;28;20184;-73
2022/09/09 05:03:37;;;;;;;2.77;2.53;;;;;;;11.16;100.00;100417.59;5011804;28;20204;-73
2022/09/09 05:06:08;;;;;;;3.77;2.37;;;;;;;11.13;100.00;100416.84;5030518;28;20244;-73
2022/09/09 05:08:37;;;;;;;2.73;2.10;;;;;;;11.24;100.00;100422.59;5009635;28;20339;-71
2022/09/09 05:11:04;;;;;;;2.30;2.10;;;;;;;11.33;100.00;100418.81;5014524;28;20288;-72
2022/09/09 05:13:32;;;;;;;2.73;2.00;;;;;;;11.33;100.00;100417.06;5010865;28;20248;-73
2022/09/09 05:16:02;;;;;;;2.37;2.17;;;;;;;11.37;100.00;100415.19;5008758;28;20192;-73
2022/09/09 05:18:29;;;;;;;3.67;2.40;;;;;;;11.51;100.00;100420.81;5015295;28;20248;-71
2022/09/09 05:21:01;;;;;;;2.63;2.03;;;;;;;11.47;100.00;100419.22;5014802;28;20216;-73
2022/09/09 05:23:30;;;;;;;2.67;2.33;;;;;;;11.49;100.00;100412.19;5028123;28;20193;-73
2022/09/09 05:25:58;;;;;;;4.53;2.50;;;;;;;11.61;100.00;100415.28;5031028;28;20566;-73
2022/09/09 05:28:27;;;;;;;2.43;2.20;;;;;;;11.67;100.00;100409.88;5030314;28;20648;-73
2022/09/09 05:30:58;;;;;;;2.47;2.27;;;;;;;11.69;100.00;100408.88;5018329;28;20264;-74
2022/09/09 05:33:29;;;;;;;4.17;2.10;;;;;;;11.68;100.00;100409.81;5035156;28;20202;-72
2022/09/09 05:35:58;;;;;;;2.70;2.10;;;;;;;11.72;100.00;100414.00;5015416;28;20194;-73
2022/09/09 05:38:26;;;;;;;2.73;2.40;;;;;;;11.78;100.00;100412.94;5022066;28;20225;-72
2022/09/09 05:40:53;;;;;;;2.07;1.77;;;;;;;11.80;100.00;100415.50;5020531;28;20216;-72
2022/09/09 05:43:20;;;;;;;4.43;2.83;;;;;;;11.81;100.00;100412.84;5022287;28;20202;-71
2022/09/09 05:45:48;;;;;;;4.73;2.20;;;;;;;11.89;100.00;100412.56;5020936;28;20312;-72
2022/09/09 05:48:16;;;;;;;2.97;2.60;;;;;;;11.92;100.00;100409.88;5014724;28;20292;-72
2022/09/09 05:50:45;;;;;;;4.27;2.77;;;;;;;11.95;100.00;100415.00;5012932;28;20235;-72
2022/09/09 05:53:12;;;;;;;2.60;2.20;;;;;;;12.05;100.00;100420.78;5016582;28;20205;-72
2022/09/09 05:55:39;;;;;;;3.00;2.50;;;;;;;12.06;100.00;100427.69;5029549;28;20203;-73
2022/09/09 05:58:06;;;;;;;5.03;3.27;;;;;;;11.99;100.00;100421.81;5010664;28;20312;-73
2022/09/09 06:00:33;;;;;;;4.37;2.50;;;;;;;12.05;100.00;100419.00;5018743;28;20209;-73
2022/09/09 06:03:01;;;;;;;3.33;2.97;;;;;;;12.08;100.00;100425.88;5025104;28;20223;-73
2022/09/09 06:05:28;;;;;;;3.27;2.70;;;;;;;12.15;100.00;100419.53;5002270;28;20214;-74
2022/09/09 06:07:56;;;;;;;3.00;2.70;;;;;;;12.27;100.00;100432.16;5014271;28;20233;-72
2022/09/09 06:10:24;;;;;;;3.83;3.27;;;;;;;12.38;100.00;100436.13;5020226;28;20945;-73
2022/09/09 06:12:54;;;;;;;5.83;2.90;;;;;;;12.49;100.00;100440.06;5005995;28;20243;-73
2022/09/09 06:15:21;;;;;;;2.90;2.60;;;;;;;12.57;100.00;100445.00;5032761;28;20199;-74
2022/09/09 06:17:54;;;;;;;6.93;2.97;;;;;;;12.65;100.00;100437.75;5019215;28;20226;-73
2022/09/09 06:20:22;;;;;;;3.60;2.70;;;;;;;12.76;100.00;100439.09;5006725;28;20200;-73
2022/09/09 06:22:49;;;;;;;2.80;2.50;;;;;;;12.83;100.00;100445.81;5014740;28;20221;-73
2022/09/09 06:25:18;;;;;;;8.87;3.33;;;;;;;12.92;100.00;100439.34;5009817;28;20191;-74
2022/09/09 06:27:49;;;;;;;2.67;2.47;;;;;;;13.00;100.00;100438.16;5013679;28;20245;-73
2022/09/09 06:30:17;;;;;;;4.20;3.10;;;;;;;13.09;100.00;100431.69;5003730;28;20210;-74
2022/09/09 06:32:44;;;;;;;3.17;2.60;;;;;;;13.21;100.00;100433.84;5029614;28;20207;-73
2022/09/09 06:35:11;;;;;;;3.20;2.63;;;;;;;13.32;100.00;100433.44;5009789;28;20196;-72
2022/09/09 06:37:38;;;;;;;4.90;3.00;;;;;;;13.48;100.00;100431.03;5013242;28;20259;-74
2022/09/09 06:40:05;;;;;;;3.67;2.53;;;;;;;13.65;100.00;100427.72;5017092;28;20201;-73
2022/09/09 06:42:33;;;;;;;5.07;2.63;;;;;;;13.75;100.00;100423.78;5018147;28;20203;-73
2022/09/09 06:45:21;;;;;;;5.93;2.73;;;;;;;13.87;100.00;100425.03;5012165;28;20201;-71
2022/09/09 06:47:55;;;;;;;4.37;2.60;;;;;;;13.94;100.00;100421.22;5016990;28;20252;-75
2022/09/09 06:50:23;;;;;;;2.80;1.87;;;;;;;14.06;100.00;100425.09;5019435;28;20528;-72
2022/09/09 06:52:50;;;;;;;4.87;2.70;;;;;;;14.14;100.00;100428.22;5016102;28;20236;-71
2022/09/09 06:55:17;;;;;;;4.37;2.43;;;;;;;14.26;100.00;100429.44;5021744;28;20197;-74
2022/09/09 06:57:46;;;;;;;2.47;2.27;;;;;;;14.36;100.00;100429.88;5031330;28;20217;-74
2022/09/09 07:00:18;;;;;;;2.80;2.50;;;;;;;14.47;100.00;100434.66;5012843;28;20737;-74
2022/09/09 07:02:45;;;;;;;7.07;3.07;;;;;;;14.54;100.00;100431.66;5011589;28;20202;-74
2022/09/09 07:05:12;;;;;;;5.77;2.93;;;;;;;14.65;100.00;100431.22;5010604;28;20197;-74
2022/09/09 07:07:41;;;;;;;3.60;2.47;;;;;;;14.75;100.00;100423.75;5009621;28;20226;-75
2022/09/09 07:10:09;;;;;;;5.00;2.57;;;;;;;14.83;100.00;100433.88;5008583;28;20719;-74
2022/09/09 07:12:37;;;;;;;2.90;2.43;;;;;;;14.96;100.00;100432.41;5012765;28;20197;-75
2022/09/09 07:15:06;;;;;;;6.33;2.50;;;;;;;15.06;100.00;100427.59;5003321;28;20199;-73
2022/09/09 07:17:33;;;;;;;4.90;2.50;;;;;;;15.18;100.00;100436.63;5009164;28;20200;-75
2022/09/09 07:20:00;;;;;;;6.67;2.27;;;;;;;15.27;100.00;100431.78;5012883;28;20207;-74
2022/09/09 07:22:28;;;;;;;3.37;2.60;;;;;;;15.42;100.00;100437.22;5017115;28;20196;-73
2022/09/09 07:24:55;;;;;;;5.43;2.60;;;;;;;15.52;100.00;100434.03;5013519;28;20203;-74
2022/09/09 07:27:21;;;;;;;2.47;2.27;;;;;;;15.66;100.00;100428.09;5027177;28;20208;-75
2022/09/09 07:29:48;;;;;;;4.70;2.73;;;;;;;15.84;100.00;100426.34;5033400;28;20215;-72
2022/09/09 07:32:17;;;;;;;7.13;3.13;;;;;;;16.04;100.00;100434.97;5012409;28;20292;-74
2022/09/09 07:34:44;;;;;;;4.63;3.13;;;;;;;16.22;100.00;100438.44;5014058;28;20289;-75
2022/09/09 07:37:11;;;;;;;4.87;3.27;;;;;;;16.43;100.00;100439.09;4994958;28;20204;-73
2022/09/09 07:39:40;;;;;;;5.73;3.13;;;;;;;16.60;100.00;100446.94;5016704;28;20208;-75
2022/09/09 07:42:07;;;;;;;4.83;3.20;;;;;;;16.74;100.00;100438.25;5011438;28;20607;-75
2022/09/09 07:44:36;;;;;;;3.73;3.03;;;;;;;16.94;100.00;100446.88;5028031;28;20201;-74
2022/09/09 07:47:08;;;;;;;6.07;3.80;;;;;;;17.13;100.00;100437.03;5016413;28;20195;-74
2022/09/09 07:49:40;;;;;;;4.70;3.20;;;;;;;17.33;100.00;100445.59;5006529;28;20813;-74
2022/09/09 07:52:08;;;;;;;6.77;2.67;;;;;;;17.49;100.00;100450.81;5013978;28;20207;-74
2022/09/09 07:54:35;;;;;;;4.07;2.43;;;;;;;17.63;100.00;100455.31;5023077;28;20593;-75
2022/09/09 07:57:05;;;;;;;3.30;1.60;;;;;;;17.75;100.00;100455.41;5014313;28;20203;-75
2022/09/09 07:59:34;;;;;;;1.43;1.33;;;;;;;17.88;100.00;100458.22;5004732;28;20224;-74
2022/09/09 08:02:02;;;;;;;1.37;1.10;;;;;;;18.00;100.00;100464.56;5013889;28;20220;-73
2022/09/09 08:04:31;;;;;;;2.00;1.00;;;;;;;18.06;100.00;100465.97;5029055;28;20201;-75
2022/09/09 08:07:02;;;;;;;1.50;1.00;;;;;;;18.15;100.00;100460.13;5006992;28;20204;-74
2022/09/09 08:09:33;;;;;;;1.27;0.90;;;;;;;18.26;100.00;100456.88;5024135;28;20231;-75
2022/09/09 08:12:16;;;;;;;2.17;0.80;;;;;;;18.45;100.00;100457.44;5023388;28;20283;-74
2022/09/09 08:14:43;;;;;;;1.07;0.90;;;;;;;18.50;100.00;100463.28;5021662;28;20205;-74
2022/09/09 08:17:09;;;;;;;1.17;0.80;;;;;;;18.59;100.00;100463.63;5003157;28;20212;-72
2022/09/09 08:19:37;;;;;;;0.90;0.70;;;;;;;18.62;100.00;100463.44;5003582;28;20270;-74
2022/09/09 08:22:09;;;;;;;0.67;0.67;;;;;;;18.68;100.00;100465.69;5008075;28;20564;-74
2022/09/09 08:24:39;;;;;;;0.90;0.70;;;;;;;18.68;100.00;100463.91;5023679;28;20193;-73
2022/09/09 08:27:06;;;;;;;1.13;0.80;;;;;;;18.74;100.00;100471.44;5013831;28;20247;-74
2022/09/09 08:29:32;;;;;;;0.60;0.60;;;;;;;18.81;100.00;100479.81;5004513;28;20227;-74
2022/09/09 08:31:59;;;;;;;0.90;0.77;;;;;;;18.81;100.00;100479.81;5008840;28;20202;-74
2022/09/09 08:34:27;;;;;;;0.70;0.60;;;;;;;18.84;100.00;100490.25;5024286;28;20200;-74
2022/09/09 08:36:56;;;;;;;1.93;0.77;;;;;;;18.87;100.00;100482.13;5006919;28;20204;-74
2022/09/09 08:39:32;;;;;;;0.50;0.43;;;;;;;18.85;100.00;100477.88;5006673;28;20925;-74
2022/09/09 08:42:23;;;;;;;1.73;0.60;;;;;;;18.95;100.00;100473.72;5018293;28;20748;-75
2022/09/09 08:45:01;;;;;;;1.60;0.97;;;;;;;19.04;100.00;100472.28;5005225;28;20209;-74
2022/09/09 08:47:40;;;;;;;0.97;0.73;;;;;;;19.05;100.00;100482.75;5019232;28;20635;-73
2022/09/09 08:50:21;;;;;;;0.83;0.70;;;;;;;19.10;100.00;100477.16;5026579;28;20219;-75
2022/09/09 08:52:56;;;;;;;1.67;0.60;;;;;;;19.17;100.00;100469.69;5026624;28;20213;-74
2022/09/09 08:55:28;;;;;;;1.10;0.70;;;;;;;19.24;100.00;100474.50;5013882;28;20230;-74
2022/09/09 08:58:00;;;;;;;0.57;0.57;;;;;;;19.22;100.00;100486.09;5008323;28;20834;-74
2022/09/09 09:00:33;;;;;;;0.70;0.70;;;;;;;19.22;100.00;100486.94;5001430;28;20247;-74
2022/09/09 09:03:10;;;;;;;0.67;0.67;;;;;;;19.27;100.00;100474.28;5012683;28;20208;-74
2022/09/09 09:05:43;;;;;;;1.73;0.87;;;;;;;19.39;100.00;100474.44;5021046;28;20204;-74
2022/09/09 09:08:23;;;;;;;1.03;0.80;;;;;;;19.43;100.00;100479.41;5003733;28;20271;-74
2022/09/09 09:10:56;;;;;;;0.60;0.60;;;;;;;19.44;100.00;100478.47;5023032;28;20216;-74
2022/09/09 09:13:32;;;;;;;0.50;0.43;;;;;;;19.52;100.00;100475.31;5020946;28;20323;-71
2022/09/09 09:16:07;;;;;;;0.67;0.60;;;;;;;19.54;100.00;100467.28;5017879;28;20228;-74
2022/09/09 09:18:34;;;;;;;1.63;0.70;;;;;;;19.57;100.00;100470.56;5018687;28;20224;-74
2022/09/09 09:21:11;;;;;;;1.07;0.60;;;;;;;19.64;100.00;100481.59;4998445;28;20233;-75
2022/09/09 09:23:49;;;;;;;2.10;0.67;;;;;;;19.75;100.00;100473.84;5011415;28;20219;-73
2022/09/09 09:26:16;;;;;;;0.87;0.60;;;;;;;19.82;100.00;100476.91;5003307;28;20373;-73
2022/09/09 09:28:43;;;;;;;2.63;0.87;;;;;;;19.90;100.00;100473.75;5007006;28;20247;-74
2022/09/09 09:31:14;;;;;;;1.37;0.70;;;;;;;19.98;100.00;100476.69;5005490;28;20217;-75
2022/09/09 09:33:49;;;;;;;0.73;0.57;;;;;;;20.08;100.00;100471.66;5003241;28;20197;-73
2022/09/09 09:36:16;;;;;;;0.60;0.60;;;;;;;20.11;100.00;100480.22;5009529;28;20235;-71
2022/09/09 09:38:56;;;;;;;1.63;0.57;;;;;;;20.19;100.00;100483.19;5017938;28;20258;-74
2022/09/09 09:41:33;;;;;;;1.97;0.80;;;;;;;20.35;100.00;100476.81;5009619;28;20242;-71
2022/09/09 09:44:01;;;;;;;2.53;0.60;;;;;;;20.47;100.00;100486.56;5019510;28;20207;-73
2022/09/09 09:46:28;;;;;;;1.70;0.77;;;;;;;20.49;100.00;100492.63;5002438;28;20193;-74
2022/09/09 09:49:05;;;;;;;0.50;0.50;;;;;;;20.59;100.00;100479.56;5019822;28;20219;-74
2022/09/09 09:51:34;;;;;;;1.50;0.50;;;;;;;20.50;100.00;100489.00;5003831;28;20224;-74
2022/09/09 09:54:11;;;;;;;0.83;0.60;;;;;;;20.40;100.00;100482.66;5005783;28;20208;-72
2022/09/09 09:56:41;;;;;;;0.70;0.70;;;;;;;20.41;100.00;100485.19;5013174;28;20198;-73
2022/09/09 09:59:21;;;;;;;0.90;0.60;;;;;;;20.39;100.00;100487.09;5009991;28;20224;-74
2022/09/09 10:01:47;;;;;;;2.80;0.70;;;;;;;20.54;100.00;100493.13;5000862;28;20236;-72
2022/09/09 10:04:18;;;;;;;0.70;0.70;;;;;;;20.78;100.00;100477.34;5028153;28;20203;-73
2022/09/09 10:06:44;;;;;;;0.60;0.50;;;;;;;20.89;100.00;100475.72;5011120;28;20262;-73
2022/09/09 10:09:23;;;;;;;1.50;0.93;;;;;;;21.07;100.00;100473.53;5008298;28;20220;-74
2022/09/09 10:11:58;;;;;;;1.27;0.70;;;;;;;21.18;100.00;100468.31;5021037;28;20256;-72
2022/09/09 10:14:35;;;;;;;1.90;0.70;;;;;;;21.32;100.00;100475.25;5006685;28;20209;-74
2022/09/09 10:17:14;;;;;;;1.10;0.57;;;;;;;21.45;100.00;100478.69;5023594;28;20196;-74
2022/09/09 10:19:45;;;;;;;0.90;0.60;;;;;;;21.59;100.00;100480.34;5011246;28;20549;-75
2022/09/09 10:22:25;;;;;;;1.07;0.70;;;;;;;21.85;100.00;100483.69;4996282;28;20310;-73
2022/09/09 10:25:33;;;;;;;0.43;0.43;;;;;;;22.01;100.00;100494.00;4998997;28;20236;-73
2022/09/09 10:28:25;;;;;;;1.05;0.70;;;;;;;22.19;100.00;100486.41;5016570;28;20235;-74
2022/09/09 10:31:05;;;;;;;0.40;0.40;;;;;;;22.00;100.00;100480.81;5003019;28;20221;-75
2022/09/09 10:33:38;;;;;;;0.93;0.60;;;;;;;21.81;100.00;100494.66;5014866;28;20227;-74
2022/09/09 10:36:14;;;;;;;0.60;0.60;;;;;;;21.65;100.00;100494.94;5025351;28;20192;-74
2022/09/09 10:38:43;;;;;;;1.08;0.60;;;;;;;21.44;100.00;100497.34;5009065;28;20222;-74
2022/09/09 10:41:19;;;;;;;1.17;0.60;;;;;;;21.31;100.00;100498.25;5011508;28;20211;-72
2022/09/09 10:44:12;;;;;;;1.10;0.55;;;;;;;21.21;100.00;100497.22;5014297;28;20204;-71
2022/09/09 10:46:49;;;;;;;1.23;0.50;;;;;;;21.08;100.00;100499.94;5006178;28;20205;-75
2022/09/09 10:49:29;;;;;;;0.73;0.40;;;;;;;20.96;100.00;100511.41;5007384;28;20224;-74
2022/09/09 10:52:03;;;;;;;0.82;0.60;;;;;;;20.98;100.00;100507.72;5014906;28;20251;-74
2022/09/09 10:54:48;;;;;;;0.98;0.55;;;;;;;20.90;100.00;100498.63;5002959;28;20208;-72
2022/09/09 10:57:28;;;;;;;0.60;0.60;;;;;;;20.81;100.00;100505.44;5027520;28;20200;-74
2022/09/09 11:00:04;;;;;;;0.60;0.60;;;;;;;20.79;100.00;100507.31;5021066;28;20759;-71
2022/09/09 11:02:32;;;;;;;0.50;0.50;;;;;;;20.72;100.00;100514.88;5009840;28;20203;-73
2022/09/09 11:05:04;;;;;;;0.50;0.50;;;;;;;20.65;100.00;100521.56;5011743;28;20216;-73
2022/09/09 11:07:39;;;;;;;0.57;0.40;;;;;;;20.75;100.00;100519.09;5005254;28;20204;-73
2022/09/09 11:10:14;;;;;;;1.27;0.52;;;;;;;20.85;100.00;100512.19;5010102;28;21403;-73
2022/09/09 11:12:47;;;;;;;0.93;0.50;;;;;;;20.95;100.00;100523.00;5008923;28;20283;-71
2022/09/09 11:15:21;;;;;;;3.42;0.73;;;;;;;20.92;100.00;100523.22;5021726;28;20291;-73
2022/09/09 11:17:51;;;;;;;1.85;0.40;;;;;;;20.94;100.00;100523.94;5013574;28;20228;-72
2022/09/09 11:20:18;;;;;;;0.68;0.50;;;;;;;21.11;100.00;100501.53;5010379;28;20254;-74
2022/09/09 11:22:49;;;;;;;0.52;0.52;;;;;;;21.22;100.00;100508.72;5008604;28;20196;-73
2022/09/09 11:25:18;;;;;;;0.52;0.38;;;;;;;21.10;100.00;100507.78;5006650;28;20291;-72
2022/09/09 11:27:55;;;;;;;0.70;0.60;;;;;;;21.12;100.00;100505.88;5009454;28;20225;-74
2022/09/09 11:30:32;;;;;;;1.02;0.60;;;;;;;21.23;100.00;100507.72;5022859;28;20645;-73
2022/09/09 11:33:26;;;;;;;1.00;0.50;;;;;;;21.40;100.00;100506.50;5008753;28;20221;-72
2022/09/09 11:36:07;;;;;;;0.90;0.30;;;;;;;21.30;100.00;100508.97;5006432;28;20210;-73
2022/09/09 11:38:46;;;;;;;1.63;0.40;;;;;;;21.18;100.00;100511.56;5017548;28;20232;-73
2022/09/09 11:41:15;;;;;;;1.15;0.35;;;;;;;21.25;100.00;100508.47;5000085;28;20193;-73